createdAt,value
2022-11-07T00:02:17.674Z,76.70
2022-11-07T00:04:46.289Z,71.70
2022-11-07T00:07:14.618Z,70.20
2022-11-07T00:09:42.899Z,70.20
2022-11-07T00:12:11.171Z,66.90
2022-11-07T00:14:39.755Z,66.90
2022-11-07T00:17:08.747Z,67.30
2022-11-07T00:19:37.127Z,66.90
2022-11-07T00:22:05.299Z,68.00
2022-11-07T00:24:34.209Z,70.90
2022-11-07T00:27:02.894Z,74.10
2022-11-07T00:29:31.149Z,76.90
2022-11-07T00:31:59.835Z,75.20
2022-11-07T00:34:28.006Z,74.90
2022-11-07T00:36:56.485Z,76.90
2022-11-07T00:39:24.868Z,69.00
2022-11-07T00:41:53.239Z,73.50
2022-11-07T00:44:21.726Z,72.20
2022-11-07T00:46:50.306Z,68.00
2022-11-07T00:49:18.791Z,71.80
2022-11-07T00:51:47.143Z,80.30
2022-11-07T00:54:15.752Z,69.10
2022-11-07T00:56:43.983Z,72.00
2022-11-07T00:59:13.892Z,72.20
2022-11-07T01:01:42.245Z,68.60
2022-11-07T01:04:33.630Z,72.90
2022-11-07T01:07:02.521Z,70.70
2022-11-07T01:09:31.001Z,71.00
2022-11-07T01:11:59.587Z,68.80
2022-11-07T01:14:27.969Z,70.10
2022-11-07T01:16:56.777Z,70.60
2022-11-07T01:19:25.236Z,67.20
2022-11-07T01:21:53.711Z,68.20
2022-11-07T01:24:22.092Z,61.80
2022-11-07T01:26:52.117Z,62.40
2022-11-07T01:29:20.694Z,66.30
2022-11-07T01:31:49.170Z,60.10
2022-11-07T01:34:18.020Z,58.70
2022-11-07T01:36:47.067Z,55.00
2022-11-07T01:39:15.329Z,58.30
2022-11-07T01:41:43.812Z,54.10
2022-11-07T01:44:12.088Z,56.50
2022-11-07T01:46:46.717Z,58.60
2022-11-07T01:49:23.588Z,55.90
2022-11-07T01:52:09.168Z,53.30
2022-11-07T01:55:17.900Z,52.80
2022-11-07T01:58:23.343Z,54.00
2022-11-07T02:00:52.000Z,47.50
2022-11-07T02:03:21.362Z,53.80
2022-11-07T02:05:56.460Z,51.50
2022-11-07T02:08:25.144Z,53.00
2022-11-07T02:10:54.252Z,49.80
2022-11-07T02:13:28.406Z,49.00
2022-11-07T02:15:59.960Z,47.80
2022-11-07T02:18:29.739Z,49.60
2022-11-07T02:21:04.565Z,51.80
2022-11-07T02:23:44.686Z,50.20
2022-11-07T02:26:13.384Z,47.80
2022-11-07T02:28:44.146Z,47.60
2022-11-07T02:31:13.113Z,46.90
2022-11-07T02:33:42.179Z,49.00
2022-11-07T02:36:20.006Z,48.10
2022-11-07T02:38:58.012Z,46.60
2022-11-07T02:41:32.164Z,49.50
2022-11-07T02:44:10.231Z,46.30
2022-11-07T02:46:40.012Z,45.40
2022-11-07T02:49:08.725Z,47.40
2022-11-07T02:51:37.207Z,48.50
2022-11-07T02:54:05.790Z,50.00
2022-11-07T02:56:33.959Z,44.80
2022-11-07T02:59:02.758Z,47.70
2022-11-07T03:01:31.427Z,48.40
2022-11-07T03:04:00.015Z,45.70
2022-11-07T03:06:28.600Z,49.30
2022-11-07T03:08:57.189Z,46.50
2022-11-07T03:11:25.559Z,49.30
2022-11-07T03:13:55.429Z,47.60
2022-11-07T03:16:23.854Z,49.40
2022-11-07T03:18:52.026Z,45.50
2022-11-07T03:21:20.611Z,45.00
2022-11-07T03:23:49.091Z,47.60
2022-11-07T03:26:17.776Z,46.20
2022-11-07T03:28:46.155Z,46.40
2022-11-07T03:31:14.225Z,46.70
2022-11-07T03:33:42.805Z,44.60
2022-11-07T03:36:11.390Z,47.50
2022-11-07T03:38:39.603Z,47.90
2022-11-07T03:41:08.274Z,45.40
2022-11-07T03:43:36.401Z,46.40
2022-11-07T03:46:04.596Z,42.20
2022-11-07T03:48:32.582Z,45.20
2022-11-07T03:51:01.047Z,45.60
2022-11-07T03:53:29.736Z,44.20
2022-11-07T03:55:58.359Z,43.30
2022-11-07T03:58:26.797Z,42.80
2022-11-07T04:00:55.275Z,43.40
2022-11-07T04:03:23.656Z,44.00
2022-11-07T04:05:52.031Z,40.90
2022-11-07T04:08:20.820Z,42.10
2022-11-07T04:10:49.301Z,39.80
2022-11-07T04:13:36.332Z,40.90
2022-11-07T04:16:23.529Z,41.60
2022-11-07T04:18:51.605Z,43.30
2022-11-07T04:21:20.086Z,41.40
2022-11-07T04:23:48.465Z,42.80
2022-11-07T04:26:35.581Z,47.90
2022-11-07T04:29:04.064Z,44.10
2022-11-07T04:31:32.546Z,43.30
2022-11-07T04:34:00.921Z,43.50
2022-11-07T04:36:29.506Z,45.10
2022-11-07T04:38:57.781Z,42.90
2022-11-07T04:41:25.901Z,46.10
2022-11-07T04:43:54.166Z,48.00
2022-11-07T04:46:23.859Z,47.20
2022-11-07T04:48:52.318Z,49.70
2022-11-07T04:51:22.371Z,50.90
2022-11-07T04:53:50.811Z,48.70
2022-11-07T04:56:19.193Z,52.00
2022-11-07T04:58:47.773Z,51.40
2022-11-07T05:01:16.151Z,52.10
2022-11-07T05:03:44.835Z,49.10
2022-11-07T05:06:14.956Z,53.40
2022-11-07T05:08:43.198Z,55.70
2022-11-07T05:11:11.917Z,57.50
2022-11-07T05:13:40.397Z,63.10
2022-11-07T05:16:19.839Z,55.20
2022-11-07T05:18:48.314Z,59.70
2022-11-07T05:21:16.793Z,62.80
2022-11-07T05:23:45.377Z,66.00
2022-11-07T05:26:13.759Z,65.90
2022-11-07T05:28:42.438Z,68.10
2022-11-07T05:31:18.076Z,70.00
2022-11-07T05:33:46.359Z,66.80
2022-11-07T05:36:17.936Z,67.50
2022-11-07T05:38:48.086Z,65.00
2022-11-07T05:41:18.712Z,64.60
2022-11-07T05:43:47.794Z,69.80
2022-11-07T05:46:16.000Z,68.90
2022-11-07T05:48:44.311Z,69.90
2022-11-07T05:51:12.995Z,67.90
2022-11-07T05:53:41.277Z,72.40
2022-11-07T05:56:09.468Z,68.70
2022-11-07T05:58:38.347Z,64.70
2022-11-07T06:01:07.347Z,70.90
2022-11-07T06:03:35.915Z,67.30
2022-11-07T06:06:04.089Z,67.60
2022-11-07T06:08:32.363Z,72.10
2022-11-07T06:11:06.493Z,74.20
2022-11-07T06:13:34.985Z,71.50
2022-11-07T06:16:03.516Z,71.60
2022-11-07T06:18:32.126Z,73.10
2022-11-07T06:21:03.366Z,70.30
2022-11-07T06:23:32.004Z,70.10
2022-11-07T06:26:00.184Z,70.50
2022-11-07T06:28:28.298Z,66.90
2022-11-07T06:31:00.576Z,68.80
2022-11-07T06:33:30.316Z,65.50
2022-11-07T06:36:07.617Z,65.90
2022-11-07T06:38:37.546Z,66.40
2022-11-07T06:41:11.490Z,65.40
2022-11-07T06:43:40.320Z,64.00
2022-11-07T06:46:12.619Z,66.50
2022-11-07T06:48:41.237Z,61.60
2022-11-07T06:51:10.478Z,63.80
2022-11-07T06:53:39.211Z,58.70
2022-11-07T06:56:10.306Z,61.70
2022-11-07T06:58:38.631Z,60.00
2022-11-07T07:01:13.457Z,58.30
2022-11-07T07:03:44.070Z,54.00
2022-11-07T07:06:16.311Z,57.30
2022-11-07T07:08:45.767Z,55.90
2022-11-07T07:11:15.835Z,53.60
2022-11-07T07:13:43.994Z,53.70
2022-11-07T07:16:13.513Z,51.00
2022-11-07T07:18:41.699Z,52.50
2022-11-07T07:21:12.743Z,54.10
2022-11-07T07:23:41.406Z,53.80
2022-11-07T07:26:16.095Z,51.50
2022-11-07T07:28:44.776Z,52.60
2022-11-07T07:31:15.909Z,48.70
2022-11-07T07:33:46.900Z,47.10
2022-11-07T07:36:20.529Z,48.20
2022-11-07T07:38:50.681Z,49.70
2022-11-07T07:41:19.672Z,48.30
2022-11-07T07:43:48.253Z,46.80
2022-11-07T07:46:22.875Z,45.30
2022-11-07T07:48:51.354Z,46.90
2022-11-07T07:51:19.636Z,45.50
2022-11-07T07:53:48.005Z,44.50
2022-11-07T07:56:17.921Z,41.60
2022-11-07T07:58:47.016Z,39.50
2022-11-07T08:01:15.338Z,41.40
2022-11-07T08:04:00.596Z,41.20
2022-11-07T08:06:32.603Z,44.50
2022-11-07T08:09:01.210Z,43.50
2022-11-07T08:11:29.484Z,43.80
2022-11-07T08:14:01.216Z,42.20
2022-11-07T08:16:30.584Z,40.10
2022-11-07T08:18:59.027Z,40.10
2022-11-07T08:21:27.608Z,39.90
2022-11-07T08:23:57.040Z,39.60
2022-11-07T08:26:26.376Z,36.80
2022-11-07T08:28:55.264Z,39.00
2022-11-07T08:31:23.317Z,38.80
2022-11-07T08:33:51.477Z,38.70
2022-11-07T08:36:20.025Z,35.70
2022-11-07T08:38:48.315Z,35.20
2022-11-07T08:41:21.816Z,35.40
2022-11-07T08:43:50.997Z,35.60
2022-11-07T08:46:19.270Z,34.60
2022-11-07T08:48:47.548Z,32.80
2022-11-07T08:51:16.036Z,30.70
2022-11-07T08:53:44.717Z,30.50
2022-11-07T08:56:13.097Z,29.20
2022-11-07T08:58:41.379Z,29.80
2022-11-07T09:01:10.521Z,33.60
2022-11-07T09:03:52.946Z,29.50
2022-11-07T09:06:25.349Z,28.60
2022-11-07T09:08:53.643Z,28.90
2022-11-07T09:11:22.192Z,28.20
2022-11-07T09:13:50.479Z,28.20
2022-11-07T09:16:19.372Z,28.30
2022-11-07T09:18:49.732Z,28.20
2022-11-07T09:21:22.351Z,26.60
2022-11-07T09:23:52.393Z,27.70
2022-11-07T09:26:21.134Z,25.50
2022-11-07T09:28:52.327Z,25.90
2022-11-07T09:31:22.186Z,24.90
2022-11-07T09:33:50.438Z,25.60
2022-11-07T09:36:18.698Z,25.80
2022-11-07T09:38:46.906Z,23.20
2022-11-07T09:41:51.813Z,23.10
2022-11-07T09:45:00.128Z,23.60
2022-11-07T09:47:40.656Z,23.70
2022-11-07T09:50:17.989Z,24.30
2022-11-07T09:53:10.106Z,23.10
2022-11-07T09:55:57.769Z,24.40
2022-11-07T09:58:34.494Z,23.00
2022-11-07T10:01:28.511Z,23.20
2022-11-07T10:04:23.743Z,22.60
2022-11-07T10:07:12.386Z,22.70
2022-11-07T10:09:58.545Z,23.80
2022-11-07T10:12:44.125Z,24.50
2022-11-07T10:15:27.545Z,21.90
2022-11-07T10:18:34.839Z,21.80
2022-11-07T10:21:37.487Z,20.10
2022-11-07T10:24:26.005Z,20.40
2022-11-07T10:26:56.202Z,21.00
2022-11-07T10:29:30.038Z,19.00
2022-11-07T10:32:05.350Z,18.90
2022-11-07T10:34:42.622Z,18.40
2022-11-07T10:37:10.897Z,19.10
2022-11-07T10:39:39.121Z,17.50
2022-11-07T10:42:16.236Z,17.50
2022-11-07T10:44:45.483Z,17.60
2022-11-07T10:47:21.661Z,20.20
2022-11-07T10:50:00.226Z,17.60
2022-11-07T10:52:36.732Z,19.40
2022-11-07T10:55:24.188Z,19.40
2022-11-07T10:58:24.170Z,19.40
2022-11-07T11:01:08.092Z,17.10
2022-11-07T11:04:06.709Z,19.80
2022-11-07T11:06:34.986Z,17.80
2022-11-07T11:09:14.986Z,17.50
2022-11-07T11:12:05.920Z,19.20
2022-11-07T11:14:34.134Z,17.50
2022-11-07T11:17:02.346Z,16.50
2022-11-07T11:19:49.218Z,17.30
2022-11-07T11:22:26.352Z,15.00
2022-11-07T11:25:18.726Z,15.10
2022-11-07T11:27:52.370Z,15.40
2022-11-07T11:30:21.613Z,16.20
2022-11-07T11:32:52.621Z,16.00
2022-11-07T11:35:47.372Z,14.50
2022-11-07T11:38:18.785Z,15.10
2022-11-07T11:41:03.376Z,15.30
2022-11-07T11:43:41.847Z,15.00
2022-11-07T11:46:42.530Z,14.10
2022-11-07T11:49:35.637Z,13.50
2022-11-07T11:52:15.059Z,13.30
2022-11-07T11:54:44.835Z,13.00
2022-11-07T11:57:37.840Z,14.40
2022-11-07T12:00:19.306Z,13.00
2022-11-07T12:02:51.266Z,12.20
2022-11-07T12:05:37.296Z,12.00
2022-11-07T12:08:26.616Z,13.00
2022-11-07T12:10:57.717Z,13.10
2022-11-07T12:14:04.233Z,11.10
2022-11-07T12:17:01.386Z,13.80
2022-11-07T12:20:02.978Z,12.00
2022-11-07T12:23:01.725Z,13.60
2022-11-07T12:25:35.745Z,13.20
2022-11-07T12:28:28.315Z,12.10
2022-11-07T12:31:20.991Z,11.90
2022-11-07T12:34:31.021Z,13.80
2022-11-07T12:37:05.153Z,13.50
2022-11-07T12:39:39.148Z,13.80
2022-11-07T12:42:19.808Z,14.80
2022-11-07T12:45:09.613Z,13.30
2022-11-07T12:48:11.843Z,11.50
2022-11-07T12:50:56.692Z,13.70
2022-11-07T12:53:52.015Z,10.90
2022-11-07T12:56:33.980Z,12.50
2022-11-07T12:59:12.618Z,12.90
2022-11-07T13:02:04.994Z,12.70
2022-11-07T13:04:59.854Z,11.00
2022-11-07T13:07:45.068Z,10.30
2022-11-07T13:10:29.520Z,10.30
2022-11-07T13:13:11.062Z,9.00
2022-11-07T13:16:08.953Z,10.10
2022-11-07T13:18:28.466Z,12.10
2022-11-07T13:21:05.680Z,11.30
2022-11-07T13:23:34.318Z,11.60
2022-11-07T13:26:20.393Z,9.60
2022-11-07T13:29:04.857Z,10.30
2022-11-07T13:31:39.351Z,9.60
2022-11-07T13:34:19.546Z,9.90
2022-11-07T13:36:51.037Z,9.70
2022-11-07T13:39:21.059Z,12.60
2022-11-07T13:41:49.559Z,11.50
2022-11-07T13:44:27.841Z,11.70
2022-11-07T13:46:59.954Z,10.30
2022-11-07T13:49:39.990Z,13.90
2022-11-07T13:52:28.221Z,12.20
2022-11-07T13:55:28.169Z,11.20
2022-11-07T13:58:13.267Z,10.80
2022-11-07T14:00:41.393Z,14.60
2022-11-07T14:03:24.567Z,11.30
2022-11-07T14:05:53.618Z,11.30
2022-11-07T14:08:33.253Z,13.70
2022-11-07T14:11:02.256Z,12.10
2022-11-07T14:13:42.020Z,10.90
2022-11-07T14:16:24.702Z,10.80
2022-11-07T14:18:58.594Z,11.30
2022-11-07T14:21:33.602Z,10.80
2022-11-07T14:24:02.280Z,12.50
2022-11-07T14:26:59.365Z,12.60
2022-11-07T14:29:27.911Z,13.30
2022-11-07T14:32:02.621Z,10.70
2022-11-07T14:34:31.453Z,12.50
2022-11-07T14:37:01.776Z,10.90
2022-11-07T14:39:32.860Z,9.90
2022-11-07T14:42:03.722Z,9.60
2022-11-07T14:44:59.772Z,10.70
2022-11-07T14:47:32.051Z,11.20
2022-11-07T14:50:02.157Z,10.10
2022-11-07T14:52:45.486Z,10.10
2022-11-07T14:55:36.375Z,10.70
2022-11-07T14:58:06.816Z,10.60
2022-11-07T15:00:35.736Z,12.20
2022-11-07T15:03:04.196Z,12.40
2022-11-07T15:05:38.240Z,12.20
2022-11-07T15:08:06.736Z,10.60
2022-11-07T15:10:39.933Z,10.60
2022-11-07T15:13:26.849Z,9.80
2022-11-07T15:16:05.595Z,13.40
2022-11-07T15:19:03.748Z,15.50
2022-11-07T15:21:38.551Z,15.90
2022-11-07T15:24:32.437Z,13.30
2022-11-07T15:27:04.069Z,11.60
2022-11-07T15:29:36.817Z,11.90
2022-11-07T15:32:19.620Z,10.10
2022-11-07T15:35:30.359Z,10.80
2022-11-07T15:37:57.887Z,14.80
2022-11-07T15:40:28.309Z,11.50
2022-11-07T15:42:56.978Z,12.30
2022-11-07T15:45:25.787Z,9.90
2022-11-07T15:47:54.427Z,11.90
2022-11-07T15:50:25.422Z,9.50
2022-11-07T15:52:55.474Z,10.20
2022-11-07T15:55:24.473Z,9.40
2022-11-07T15:57:54.553Z,10.30
2022-11-07T16:00:26.896Z,9.80
2022-11-07T16:02:55.507Z,10.70
2022-11-07T16:05:24.238Z,10.80
2022-11-07T16:07:52.499Z,9.90
2022-11-07T16:10:26.059Z,10.40
2022-11-07T16:12:54.757Z,11.70
2022-11-07T16:15:25.482Z,10.00
2022-11-07T16:17:53.690Z,12.10
2022-11-07T16:20:24.395Z,11.00
2022-11-07T16:22:52.712Z,11.70
2022-11-07T16:25:24.816Z,12.90
2022-11-07T16:27:55.855Z,12.50
2022-11-07T16:30:24.213Z,11.90
2022-11-07T16:32:52.363Z,12.70
2022-11-07T16:35:21.309Z,14.40
2022-11-07T16:37:49.374Z,11.10
2022-11-07T16:40:19.936Z,13.50
2022-11-07T16:42:48.067Z,11.60
2022-11-07T16:45:23.058Z,11.10
2022-11-07T16:47:51.197Z,11.10
2022-11-07T16:50:19.593Z,12.20
2022-11-07T16:52:48.057Z,12.90
2022-11-07T16:55:18.872Z,13.40
2022-11-07T16:57:48.019Z,13.70
2022-11-07T17:00:18.959Z,12.40
2022-11-07T17:02:48.043Z,13.00
2022-11-07T17:05:16.937Z,14.60
2022-11-07T17:07:45.437Z,12.80
2022-11-07T17:10:17.704Z,12.40
2022-11-07T17:12:46.165Z,14.10
2022-11-07T17:15:14.338Z,12.00
2022-11-07T17:17:42.996Z,15.50
2022-11-07T17:20:49.283Z,15.70
2022-11-07T17:23:11.623Z,12.20
2022-11-07T17:25:40.741Z,13.90
2022-11-07T17:28:09.891Z,16.00
2022-11-07T17:30:38.198Z,13.10
2022-11-07T17:33:06.473Z,13.50
2022-11-07T17:35:36.983Z,12.80
2022-11-07T17:38:05.686Z,13.70
2022-11-07T17:40:35.361Z,12.90
2022-11-07T17:43:03.877Z,13.40
2022-11-07T17:45:32.157Z,13.20
2022-11-07T17:48:00.456Z,13.10
2022-11-07T17:50:28.755Z,13.60
2022-11-07T17:52:56.909Z,15.40
2022-11-07T17:55:25.737Z,13.30
2022-11-07T17:57:54.344Z,13.30
2022-11-07T18:00:25.109Z,13.40
2022-11-07T18:02:53.947Z,13.10
2022-11-07T18:05:26.402Z,13.70
2022-11-07T18:07:57.178Z,12.80
2022-11-07T18:10:25.967Z,13.00
2022-11-07T18:12:57.316Z,14.70
2022-11-07T18:15:26.409Z,13.20
2022-11-07T18:17:54.685Z,15.40
2022-11-07T18:20:23.479Z,12.20
2022-11-07T18:22:51.956Z,13.60
2022-11-07T18:25:20.432Z,12.90
2022-11-07T18:27:49.023Z,12.60
2022-11-07T18:30:17.394Z,13.20
2022-11-07T18:32:45.877Z,12.90
2022-11-07T18:35:14.152Z,13.60
2022-11-07T18:37:42.249Z,12.60
2022-11-07T18:40:11.930Z,14.10
2022-11-07T18:42:46.419Z,12.80
2022-11-07T18:45:14.796Z,12.90
2022-11-07T18:47:42.958Z,13.40
2022-11-07T18:50:11.547Z,13.60
2022-11-07T18:52:40.034Z,12.70
2022-11-07T18:55:09.972Z,12.00
2022-11-07T18:57:38.545Z,13.50
2022-11-07T19:00:13.084Z,13.00
2022-11-07T19:02:42.515Z,13.70
2022-11-07T19:05:10.978Z,14.50
2022-11-07T19:07:43.153Z,14.00
2022-11-07T19:10:14.133Z,13.20
2022-11-07T19:12:43.335Z,16.20
2022-11-07T19:15:12.811Z,14.30
2022-11-07T19:17:41.584Z,16.50
2022-11-07T19:20:10.778Z,14.10
2022-11-07T19:22:39.246Z,16.40
2022-11-07T19:25:07.942Z,14.10
2022-11-07T19:27:36.320Z,14.20
2022-11-07T19:30:07.183Z,13.00
2022-11-07T19:32:35.939Z,14.30
2022-11-07T19:35:04.713Z,14.00
2022-11-07T19:37:33.307Z,16.80
2022-11-07T19:40:01.676Z,15.00
2022-11-07T19:42:30.170Z,12.90
2022-11-07T19:44:58.536Z,15.10
2022-11-07T19:47:26.914Z,13.30
2022-11-07T19:49:55.596Z,13.70
2022-11-07T19:52:24.298Z,13.70
2022-11-07T19:54:52.774Z,15.20
2022-11-07T19:57:21.246Z,16.90
2022-11-07T19:59:49.726Z,14.40
2022-11-07T20:02:32.449Z,15.20
2022-11-07T20:05:02.667Z,13.70
2022-11-07T20:07:31.449Z,14.40
2022-11-07T20:10:01.573Z,15.10
2022-11-07T20:12:29.853Z,16.10
2022-11-07T20:14:58.536Z,17.40
2022-11-07T20:17:27.214Z,19.50
2022-11-07T20:19:56.609Z,22.30
2022-11-07T20:22:26.434Z,18.00
2022-11-07T20:24:54.616Z,16.20
2022-11-07T20:27:23.223Z,16.40
2022-11-07T20:29:51.467Z,16.40
2022-11-07T20:32:20.042Z,17.60
2022-11-07T20:34:53.621Z,17.00
2022-11-07T20:37:22.535Z,17.80
2022-11-07T20:39:52.152Z,18.20
2022-11-07T20:42:20.418Z,19.50
2022-11-07T20:44:50.655Z,19.20
2022-11-07T20:47:19.337Z,19.10
2022-11-07T20:49:47.550Z,18.80
2022-11-07T20:52:15.976Z,20.20
2022-11-07T20:54:44.364Z,19.70
2022-11-07T20:57:12.939Z,19.50
2022-11-07T20:59:42.418Z,20.30
2022-11-07T21:02:13.138Z,19.00
2022-11-07T21:05:03.088Z,20.30
2022-11-07T21:07:30.820Z,19.10
2022-11-07T21:09:59.517Z,19.50
2022-11-07T21:12:28.104Z,19.90
2022-11-07T21:14:56.470Z,19.70
2022-11-07T21:17:25.058Z,18.70
2022-11-07T21:19:53.141Z,19.70
2022-11-07T21:22:26.655Z,19.90
2022-11-07T21:24:58.068Z,18.60
2022-11-07T21:27:26.557Z,18.50
2022-11-07T21:29:54.830Z,19.10
2022-11-07T21:32:23.308Z,19.30
2022-11-07T21:34:51.699Z,18.70
2022-11-07T21:37:20.167Z,19.10
2022-11-07T21:39:48.236Z,19.80
2022-11-07T21:42:16.898Z,20.70
2022-11-07T21:44:45.403Z,21.20
2022-11-07T21:47:13.884Z,19.00
2022-11-07T21:49:42.139Z,18.90
2022-11-07T21:52:11.637Z,20.10
2022-11-07T21:54:39.936Z,19.00
2022-11-07T21:57:08.215Z,20.00
2022-11-07T21:59:36.867Z,20.00
2022-11-07T22:02:05.239Z,19.00
2022-11-07T22:04:33.658Z,18.90
2022-11-07T22:07:02.444Z,21.00
2022-11-07T22:09:30.640Z,19.70
2022-11-07T22:11:59.114Z,20.20
2022-11-07T22:14:27.379Z,22.10
2022-11-07T22:16:56.974Z,21.50
2022-11-07T22:19:25.975Z,20.20
2022-11-07T22:21:54.244Z,20.30
2022-11-07T22:24:26.310Z,20.60
2022-11-07T22:26:55.962Z,21.80
2022-11-07T22:29:24.300Z,22.20
2022-11-07T22:31:52.826Z,20.30
2022-11-07T22:34:21.459Z,20.90
2022-11-07T22:36:50.416Z,21.40
2022-11-07T22:39:18.901Z,21.50
2022-11-07T22:41:47.211Z,21.50
2022-11-07T22:44:15.999Z,22.30
2022-11-07T22:46:44.382Z,22.20
2022-11-07T22:49:12.758Z,21.50
2022-11-07T22:51:41.131Z,21.50
2022-11-07T22:54:13.326Z,22.40
2022-11-07T22:56:41.784Z,21.60
2022-11-07T22:59:11.516Z,21.20
2022-11-07T23:01:43.293Z,22.40
2022-11-07T23:04:16.163Z,22.80
2022-11-07T23:06:44.951Z,22.00
2022-11-07T23:09:15.177Z,23.00
2022-11-07T23:11:46.397Z,23.10
2022-11-07T23:14:19.898Z,22.80
2022-11-07T23:16:51.711Z,21.90
2022-11-07T23:19:23.530Z,22.40
2022-11-07T23:21:56.839Z,21.70
2022-11-07T23:24:25.378Z,22.20
2022-11-07T23:26:53.756Z,22.30
2022-11-07T23:29:25.541Z,22.10
2022-11-07T23:31:54.022Z,22.80
2022-11-07T23:34:22.879Z,21.10
2022-11-07T23:36:51.772Z,21.30
2022-11-07T23:39:24.137Z,23.60
2022-11-07T23:41:52.318Z,21.60
2022-11-07T23:44:20.804Z,20.60
2022-11-07T23:47:07.660Z,20.40
2022-11-07T23:49:54.627Z,20.70
2022-11-07T23:52:22.839Z,20.90
2022-11-07T23:55:09.715Z,21.30
2022-11-07T23:57:58.385Z,20.60
